Theodore Roosevelt National Park, ND

6:07 PM MDT on August 21, 2014 (GMT -0600)
Dickinson Municipal | Change Station
CLOSE
Current Station
Airport
Location: Dickinson,
Elevation: 2592 ft
Nearby Weather Stations

Elev 2592 ft 46.80 °N, 102.80 °W | Updated 11 minutes ago

Scattered Clouds
Scattered Clouds
71 °F
Feels Like 71 °F
N
12
Wind Variable Wind from North

Today
High -- | Low -- °F
--% Chance of Precip.
Yesterday
High -- | Low -- °F
Precip. -- in
5:56 AM 7:51 PM
Waning Crescent, 11% visible
Pressure 29.94 in
Visibility 10.0 miles
Clouds Scattered Clouds 8500 ft
Dew Point 60 °F
Humidity 68%
Rainfall 0.00 in
Snow Depth Not available.
UV 1 out of 12
Pollen 7.90 out of 12
Air Quality Not available.
Flu Activity Not available.
METAR KDIK 212356Z AUTO 36010KT 10SM SCT085 22/16 A2996 RMK AO2 SLP136 T02170156 10261 20206 53010

More Conditions Fewer Conditions

Pressure 29.94 in
Visibility 10.0 miles
Clouds Scattered Clouds 8500 ft
Dew Point 60 °F
Humidity 68%
Rainfall 0.00 in
Snow Depth Not available.
UV 1 out of 12
Pollen 7.90 out of 12
Air Quality Not available.
Flu Activity Not available.
METAR KDIK 212356Z AUTO 36010KT 10SM SCT085 22/16 A2996 RMK AO2 SLP136 T02170156 10261 20206 53010

More Conditions Fewer Conditions

10-Day Weather Forecast

Almanac

Astronomy

Aug. 21, 2014 Rise Set
Actual Time 5:56 AM MDT 7:51 PM MDT
Civil Twilight 5:23 AM MDT 8:23 PM MDT
Nautical Twilight 4:43 AM MDT 9:03 PM MDT
Astronomical Twilight 3:59 AM MDT 9:47 PM MDT
Moon 2:22 AM MDT (8/21) 5:26 PM MDT (8/21)
Length of Visible Light 14h 59m
Length of Day
13h 54m
Tomorrow will be 3m 7s shorter.
Waning Crescent, 11% of the Moon is Illuminated
Today
Waning Crescent
Aug 25
New
Sep 2
First Quarter
Sep 8
Full
Sep 15
Last Quarter

Today's Extremes

State Highs State Lows

Community

WunderPhotos

Upload Photos

1,746,059 photos uploaded!

Nearby

Snow Depth

Station Depth Elevation
No new snow has been reported.

Earthquake Activity

City Distance Mag. Time & Date
No recent earthquake activity has been reported nearby.
Minimum magnitude displayed is 2.5.

Coastal Water Temperatures

Place Temperature
No Stations Reporting

Nearby Weather Stations